Nakusp, Canada
Current Conditions -  °F | °C
As of 11:13 PM on Saturday 27 Dec 2014 (Local Time) from CYRV Reporting Station
Overcast Overcast  
Wind Chill: 17°   Ceiling: 6500
Heat Index: 28°   Visibility: 9mi
Dew Point: 23°   Wind: 16mph
Humidity: 80%   Direction: 360°N
Pressure: 29.98"   Gusts: NA
Location:  50.24°N, 117.8°W
Report Text: CYRV 280713Z AUTO 36014KT 9SM BKN065 BKN120 OVC210 M02/M05 A2998 RMK WSHFT AT 0702Z SLP174
Loading
Personal Weather Stations






























Interactive Weather Map New forecast layout! Learn more

10-Day Weather Forecast

Advertisements
Track Severe Weather on mobile